Ali Al-Khaibari

Olheiro-Chefe - Najran
21 Nov 2027
Domingo
Processo

Personalidade

Adaptabilidade (3) Ambição (4) Controvérsia (12) Lealdade (11) Pressão (15) Profissionalismo (5) Espírito Esportivo (14) Temperamento (2)

Perfil

Estilo de Treinamento Democrático
Licença Continental Pro
Determinação 10
Gestão de Pessoas 12
Motivação 7
Disciplina 5
Satisfação no Trabalho
100%
Fadiga
0%
Função Olheiro-Chefe
Salário 72.5K p/s
Contrato 14.03.2028

Desempenho

Comportamento Bom
Eficácia do Treinamento
45%
Desenvolvimento do Jogador
40%
Prevenção de Lesões
50%
Implementação Tática
35%

Eventos Recentes

Participou de uma reunião de recrutamento 14d atrás
Participou de uma reunião de recrutamento 21d atrás
Participou de uma reunião de recrutamento 28d atrás
Participou de uma reunião de recrutamento 35d atrás
Avaliou um jogador 42d atrás
Participou de uma reunião de recrutamento 42d atrás
Participou de uma reunião de recrutamento 42d atrás
Participou de uma reunião de recrutamento 42d atrás

Monitorando agora

98
Jogador Clube Status Habilidade Confiança Observado Última observação Último voto
Didier Bueno Jaguares Ativo 109 / 106 40% 1 04.10.2027 -
Lorenzo Monti Temperley Ativo 97 / 124 40% 1 04.10.2027 -
Santiago Gauna Almirante Brown Ativo 116 / 106 40% 1 04.10.2027 -
Amar Al-Yuhaybi Al-Nahda Ativo 87 / 92 42% 1 / 1m 15.09.2027 -
Juan Salas Patronato Ativo 113 / 113 40% 1 30.08.2027 -
Lautaro Núñez Alvarado Perdido 112 / 109 40% 1 30.08.2027 -
Jadsom Al Wahda Ativo 136 / 137 40% 1 30.08.2027 -
Prince Ibara Al-Njoom Perdido 111 / 99 69% 1 26.07.2027 Aprovar
Mattia Viti Sampdoria Perdido 147 / 130 40% 1 19.07.2027 -
Dion Lopy Al-Ittihad Ativo 138 / 129 40% 2 18.01.2027 -
Mahamadou Doumbia Al-Ittihad Ativo 127 / 121 40% 2 18.01.2027 -
Marat Bokoev Akron Ativo 120 / 109 40% 1 05.01.2027 -
Mohammed Al-Dossary Al-Ra'ed Ativo 104 / 108 40% 1 01.01.2027 -
Muhannad Al-Shanqiti Al-Ittihad Ativo 123 / 123 40% 1 01.01.2027 -
Denzel Jubitana Neftchi Ativo 117 / 97 40% 4 31.12.2026 -
Younes El Bahraoui Al-Taawoun Ativo 114 / 127 40% 3 31.12.2026 -
Omar Nader Nottingham Forest Ativo 137 / 139 40% 6 29.12.2026 -
Albert Amoah Hajer Ativo 91 / 98 40% 1 29.12.2026 -
Pablo Latorre Ohod Ativo 86 / 96 40% 3 25.12.2026 -
Vyacheslav Grulev Nizhniy Novgorod Ativo 119 / 108 40% 5 24.12.2026 Observar
Jacques Siwe Rubin Ativo 114 / 126 40% 4 21.12.2026 -
Jay Stansfield Birmingham Ativo 138 / 124 40% 7 18.12.2026 -
Abdullah Al-Hamddan Al-Nassr Ativo 116 / 112 40% 2 18.12.2026 -
Maxim Kutovoy Salyut Ativo 76 / 71 40% 1 17.12.2026 -
Mikhail Gainov Dinamo Stavropol Ativo 84 / 73 40% 1 17.12.2026 -
Yeangel Montero Naxxar Lions Ativo 94 / 102 40% 2 15.12.2026 -
Ekain Orobengoa Real Sociedad Ativo 101 / 104 40% 1 14.12.2026 -
Daniil Agureev Amkar Ativo 94 / 81 40% 1 13.12.2026 -
Yegor Golenkov Rostov Ativo 118 / 124 40% 4 12.12.2026 -
Jonathan Okoronkwo Torpedo Moscow Ativo 90 / 120 40% 3 12.12.2026 -
Manu Morlanes Mallorca Ativo 138 / 135 40% 2 09.12.2026 -
Faisal Al-Ghamdi Al-Ittihad Ativo 123 / 123 40% 1 09.12.2026 -
Aschraf El Mahdioui Al-Taawoun Ativo 127 / 123 40% 1 08.12.2026 Mais informações
Derry Scherhant SC Freiburg Ativo 121 / 117 40% 1 05.12.2026 -
Stanislav Biblyk Chaika Ativo 88 / 78 40% 1 02.12.2026 -
Brayan Gil Baltika Ativo 110 / 116 40% 6 01.12.2026 -
Martin Sekulić Ural Ativo 105 / 126 40% 3 01.12.2026 -
Fahad Al-Zubaidi Al-Fateh Ativo 103 / 97 40% 2 29.11.2026 -
Tobías Dieni Ryazan Ativo 78 / 56 40% 1 26.11.2026 -
Jáder Valencia Deportes Tolima Ativo 104 / 116 40% 2 25.11.2026 -
Miloš Jovičić Zabbar St. Patrick Ativo 86 / 112 40% 1 24.11.2026 -
Ruslan Apekov Torpedo Moscow Ativo 96 / 107 40% 1 23.11.2026 -
Slobodan Tedić Akron Ativo 97 / 100 40% 3 21.11.2026 -
Ivan Giraldo Valencia Ativo 113 / 148 40% 3 20.11.2026 -
Gastón Álvarez Al-Qadisiyah Ativo 139 / 136 40% 1 20.11.2026 -
Merih Demiral Al-Ahli Ativo 136 / 136 40% 1 20.11.2026 -
Musab Al-Juwayr Al-Qadisiyah Ativo 126 / 134 40% 2 18.11.2026 -
Zaydou Youssouf Al-Fateh Ativo 128 / 138 40% 1 17.11.2026 Mais informações
Renat Garayev AZAL Ativo 107 / 94 40% 1 13.11.2026 -
Shota Shekiladze Dila Ativo 117 / 124 40% 3 12.11.2026 -
Ousmane Diawara Altach Ativo 106 / 113 40% 1 10.11.2026 -
Mihai Lixandru Al-Fateh Ativo 116 / 112 40% 1 04.11.2026 -
Abdullah Hassoun Al-Riyadh Ativo 96 / 104 40% 1 04.11.2026 -
Kennedy Boateng Al-Fateh Ativo 130 / 127 40% 1 03.11.2026 -
Ilja Vakhania Krasnodar Ativo 130 / 103 40% 1 03.11.2026 -
Leo Goglichidze Rodina Ativo 122 / 115 40% 1 03.11.2026 -
Lucas Souto Defensa y Justicia Ativo 119 / 139 40% 1 02.11.2026 -
Jonah James Al-Jeel Ativo 89 / 88 40% 1 31.10.2026 -
Yegor Kortsov Dinamo Brest Ativo 119 / 117 40% 1 24.10.2026 -
Dardan Shabanhaxhaj Rubin Ativo 123 / 125 40% 2 23.10.2026 -
Erik Bodencer Central Norte Ativo 105 / 118 40% 3 19.10.2026 -
Marcos Cuenca Zaragoza Ativo 122 / 103 40% 4 18.10.2026 -
Gaspar Duarte Rosario Central Ativo 109 / 115 40% 1 17.10.2026 -
Igor Jesus Nottingham Forest Ativo 133 / 143 40% 1 08.10.2026 -
Peter Thiong'o Kakamega Homeboyz Ativo 89 / 87 40% 1 08.10.2026 -
Yves Bissouma Tottenham Ativo 139 / 150 40% 1 06.10.2026 -
Jayden Sweeney Grimsby Town Ativo 90 / 114 40% 1 06.10.2026 -
Albin Andersson Falkenberg Ativo 111 / 105 40% 2 04.10.2026 -
Josephat Lopaga Kakamega Homeboyz Ativo 86 / 104 40% 1 03.10.2026 -
Job Ochieng Real Sociedad Ativo 117 / 87 40% 1 03.10.2026 -
Nabil Alioui Al-Hilal Ativo 112 / 111 40% 1 01.10.2026 Mais informações
Kein Sato FC Tokyo Ativo 125 / 132 40% 1 27.09.2026 -
Isaac Matondo Koper Ativo 100 / 109 40% 1 26.09.2026 -
Ramiro Ruiz Rodríguez Atlético Tucumán Ativo 112 / 136 40% 1 21.09.2026 -
João Félix Dinamo Moscow Ativo 161 / 148 40% 1 20.09.2026 -
Samuel Ssenyonjo AFC Leopards Ativo 78 / 101 40% 1 19.09.2026 -
Kyle Joseph Middlesbrough Ativo 126 / 95 40% 1 17.09.2026 -
Meshari Al-Nemer Al-Diriyah Perdido 90 / 99 40% 1 17.09.2026 Mais informações
Jaze Kabia Grimsby Town Ativo 84 / 82 40% 1 17.09.2026 -
Alvin Mangeni Kenya Police Ativo 74 / 65 40% 1 16.09.2026 -
Dato Mchedlidze Tskhinvali Ativo 105 / 111 40% 1 15.09.2026 -
Lautaro Montenegro Al Wahda Ativo 112 / 103 40% 1 14.09.2026 -
Tobías Bovone Deportivo Pereira Ativo 100 / 109 40% 1 14.09.2026 -
Tenton Yenne Baltika Ativo 105 / 110 40% 1 14.09.2026 -
Mikhail Ignatov Sochi Ativo 122 / 108 40% 1 14.09.2026 -
Roger Ibañez Al-Ahli Ativo 144 / 156 40% 3 11.09.2026 -
Valentin Atangana Al-Ahli Ativo 123 / 119 40% 1 11.09.2026 -
Ahmed Al-Nakhli Al-Hazem Ativo 109 / 100 40% 1 11.09.2026 -
Samuel Kapen Gor Mahia Ativo 83 / 87 40% 1 11.09.2026 -
Enzo Larrosa Independiente Medellin Ativo 108 / 90 40% 1 10.09.2026 -
Facundo Miño Deportivo Riestra Ativo 129 / 138 40% 1 07.09.2026 -
César Magallan Estudiantes de Merida Ativo 107 / 116 40% 1 25.08.2026 -
Ollie Watkins Al-Hilal Ativo 141 / 155 40% 1 25.08.2026 -
Mamadou Coulibaly Al Jazira Ativo 114 / 123 40% 1 10.08.2026 -
Pedro Malheiro Al Wasl Ativo 129 / 149 40% 1 10.08.2026 -
Kurt Zouma Al Wasl Ativo 127 / 136 40% 1 10.08.2026 -
Jaime Seoane Al-Faisaly Ativo 125 / 146 40% 1 03.08.2026 -
Andrigo Dibba Ativo 108 / 123 40% 1 02.08.2026 -